Time;durP1;ratioP1;P1;durP2;ratioP2;P2;SDS_P1;SDS_P2;PMS_P1;PMS_P2;Temp;Humidity;BMP_temperature;BMP_pressure;BME280_temperature;BME280_humidity;BME280_pressure;Samples;Min_cycle;Max_cycle;Signal;HPM_P1;HPM_P2
2022/05/23 00:01:03;;;;;;;2.20;1.50;;;18.70;91.50;;;;;;5062498;28;20569;-68
2022/05/23 00:03:30;;;;;;;1.92;1.27;;;18.60;91.70;;;;;;5058223;28;20172;-69
2022/05/23 00:05:55;;;;;;;1.35;1.25;;;18.70;92.10;;;;;;5059174;28;20204;-69
2022/05/23 00:08:21;;;;;;;1.40;1.30;;;18.60;92.50;;;;;;5056366;28;20647;-68
2022/05/23 00:10:47;;;;;;;1.50;1.33;;;18.60;93.10;;;;;;5057926;28;20169;-68
2022/05/23 00:13:13;;;;;;;1.48;1.30;;;18.50;93.50;;;;;;5054291;28;20177;-68
2022/05/23 00:15:39;;;;;;;3.38;1.58;;;18.40;93.90;;;;;;5069985;28;20246;-69
2022/05/23 00:18:04;;;;;;;2.40;1.50;;;18.30;94.60;;;;;;5059918;28;20696;-69
2022/05/23 00:20:30;;;;;;;2.25;1.20;;;18.30;95.10;;;;;;5060097;28;20208;-69
2022/05/23 00:22:56;;;;;;;3.70;1.55;;;18.20;95.80;;;;;;5066962;28;20662;-69
2022/05/23 00:25:21;;;;;;;2.22;1.55;;;18.10;96.40;;;;;;5074131;28;20608;-69
2022/05/23 00:27:47;;;;;;;1.73;1.55;;;18.10;97.00;;;;;;5062001;28;20177;-68
2022/05/23 00:30:16;;;;;;;2.25;1.42;;;18.00;97.40;;;;;;5064665;28;20230;-68
2022/05/23 00:35:27;;;;;;;6.95;1.75;;;17.90;98.30;;;;;;5071166;28;20211;-68
2022/05/23 00:37:55;;;;;;;1.67;1.58;;;17.80;98.90;;;;;;5059077;28;20629;-68
2022/05/23 00:43:13;;;;;;;2.97;1.40;;;17.80;99.20;;;;;;5054143;28;20182;-68
2022/05/23 00:43:48;;;;;;;2.75;1.42;;;17.70;99.60;;;;;;5055261;28;20208;-68
2022/05/23 00:46:14;;;;;;;3.05;1.70;;;17.60;99.90;;;;;;5062477;28;20292;-68
2022/05/23 00:48:39;;;;;;;3.63;1.52;;;17.60;99.90;;;;;;5061880;28;20542;-69
2022/05/23 00:51:13;;;;;;;1.50;1.40;;;17.50;99.90;;;;;;5066123;28;20540;-68
2022/05/23 00:53:46;;;;;;;2.08;1.50;;;17.50;99.90;;;;;;5061064;28;20574;-69
2022/05/23 00:56:14;;;;;;;1.75;1.60;;;17.40;99.90;;;;;;5055598;28;20190;-68
2022/05/23 00:58:45;;;;;;;1.83;1.60;;;17.40;99.90;;;;;;5058468;28;20200;-68
2022/05/23 01:01:14;;;;;;;1.42;1.33;;;17.30;99.90;;;;;;5061131;28;20601;-68
2022/05/23 01:03:40;;;;;;;2.50;1.50;;;17.20;99.90;;;;;;5057303;28;20178;-68
2022/05/23 01:06:08;;;;;;;1.67;1.58;;;17.20;99.90;;;;;;5063964;28;20350;-68
2022/05/23 01:08:35;;;;;;;2.65;1.52;;;17.10;99.90;;;;;;5056519;28;20203;-68
2022/05/23 01:11:03;;;;;;;3.05;1.55;;;17.00;99.90;;;;;;5059074;28;20641;-68
2022/05/23 01:13:29;;;;;;;1.85;1.75;;;17.00;99.90;;;;;;5066747;28;20814;-69
2022/05/23 01:15:54;;;;;;;2.70;1.75;;;16.90;99.90;;;;;;5069780;28;20308;-69
2022/05/23 01:18:20;;;;;;;1.73;1.55;;;16.90;99.90;;;;;;5053265;28;20229;-68
2022/05/23 01:20:47;;;;;;;2.70;1.63;;;16.80;99.90;;;;;;5059302;28;20699;-69
2022/05/23 01:23:29;;;;;;;2.13;1.83;;;16.80;99.90;;;;;;5055419;28;20693;-69
2022/05/23 01:25:56;;;;;;;3.55;1.80;;;16.80;99.90;;;;;;5058238;28;20188;-69
2022/05/23 01:28:21;;;;;;;1.70;1.60;;;16.80;99.90;;;;;;5057210;28;20185;-68
2022/05/23 01:30:47;;;;;;;3.03;1.75;;;16.80;99.90;;;;;;5069172;28;20173;-68
2022/05/23 01:33:14;;;;;;;2.28;1.80;;;16.80;99.90;;;;;;5054701;28;20223;-69
2022/05/23 01:35:40;;;;;;;1.83;1.73;;;16.80;99.90;;;;;;5055063;28;20177;-69
2022/05/23 01:38:07;;;;;;;1.90;1.60;;;16.80;99.90;;;;;;5052667;28;20262;-68
2022/05/23 01:40:32;;;;;;;3.80;1.83;;;16.70;99.90;;;;;;5062478;28;20235;-68
2022/05/23 01:42:58;;;;;;;4.68;2.10;;;16.80;99.90;;;;;;5061871;28;20216;-67
2022/05/23 01:45:33;;;;;;;3.40;1.77;;;16.80;99.90;;;;;;5053595;28;20182;-68
2022/05/23 01:47:59;;;;;;;3.53;2.00;;;16.70;99.90;;;;;;5042352;28;20717;-69
2022/05/23 01:50:25;;;;;;;3.08;1.85;;;16.70;99.90;;;;;;5064779;28;20242;-69
2022/05/23 01:52:52;;;;;;;2.65;2.10;;;16.70;99.90;;;;;;5059299;28;20177;-70
2022/05/23 01:55:19;;;;;;;5.03;2.08;;;16.60;99.90;;;;;;5052239;28;20181;-69
2022/05/23 01:57:44;;;;;;;3.25;1.88;;;16.60;99.90;;;;;;5057038;28;20181;-69
2022/05/23 02:02:56;;;;;;;2.85;2.10;;;16.50;99.90;;;;;;5057344;28;20674;-69
2022/05/23 02:05:25;;;;;;;2.97;1.90;;;16.50;99.90;;;;;;5052209;28;20170;-69
2022/05/23 02:07:51;;;;;;;2.15;1.95;;;16.40;99.90;;;;;;5061017;28;20186;-69
2022/05/23 02:10:17;;;;;;;4.47;2.08;;;16.40;99.90;;;;;;5065689;28;20181;-69
2022/05/23 02:12:42;;;;;;;2.30;1.83;;;16.40;99.90;;;;;;5052629;28;20191;-69
2022/05/23 02:15:08;;;;;;;2.22;1.80;;;16.30;99.90;;;;;;5070460;28;20181;-70
2022/05/23 02:17:34;;;;;;;2.90;2.35;;;16.30;99.90;;;;;;5063450;28;20828;-69
2022/05/23 02:19:59;;;;;;;2.10;1.85;;;16.30;99.90;;;;;;5063180;28;20185;-68
2022/05/23 02:22:25;;;;;;;3.30;2.50;;;16.30;99.90;;;;;;5054197;28;20216;-69
2022/05/23 02:24:51;;;;;;;3.78;2.30;;;16.30;99.90;;;;;;5063792;28;20177;-69
2022/05/23 02:27:16;;;;;;;3.42;2.15;;;16.30;99.90;;;;;;5053649;28;20196;-69
2022/05/23 02:29:42;;;;;;;3.42;2.25;;;16.20;99.90;;;;;;5057698;28;20588;-69
2022/05/23 02:32:08;;;;;;;2.08;1.88;;;16.20;99.90;;;;;;5056550;28;20189;-69
2022/05/23 02:34:34;;;;;;;3.15;2.03;;;16.20;99.90;;;;;;5059277;28;20554;-69
2022/05/23 02:37:00;;;;;;;2.33;2.10;;;16.20;99.90;;;;;;5067730;28;20663;-70
2022/05/23 02:39:26;;;;;;;2.28;2.08;;;16.20;99.90;;;;;;5051543;28;20189;-69
2022/05/23 02:41:51;;;;;;;3.45;2.00;;;16.20;99.90;;;;;;5066736;28;20219;-69
2022/05/23 02:44:17;;;;;;;2.35;2.15;;;16.10;99.90;;;;;;5058321;28;20173;-69
2022/05/23 02:46:43;;;;;;;3.17;2.30;;;16.10;99.90;;;;;;5068860;28;20701;-70
2022/05/23 02:49:09;;;;;;;2.83;2.30;;;16.10;99.90;;;;;;5060162;28;20182;-70
2022/05/23 02:51:34;;;;;;;4.05;2.20;;;16.00;99.90;;;;;;5054224;28;20602;-69
2022/05/23 02:54:00;;;;;;;4.07;2.00;;;16.00;99.90;;;;;;5054037;28;20644;-69
2022/05/23 02:56:26;;;;;;;2.17;2.00;;;16.00;99.90;;;;;;5052083;28;20183;-69
2022/05/23 02:58:51;;;;;;;2.50;2.30;;;16.00;99.90;;;;;;5052391;28;20523;-69
2022/05/23 03:01:17;;;;;;;2.97;2.00;;;16.00;99.90;;;;;;5060834;28;20201;-70
2022/05/23 03:03:43;;;;;;;2.38;2.17;;;16.00;99.90;;;;;;5053043;28;20177;-69
2022/05/23 03:06:09;;;;;;;4.63;2.35;;;16.00;99.90;;;;;;5061861;28;20181;-68
2022/05/23 03:08:35;;;;;;;2.83;2.33;;;16.00;99.90;;;;;;5068148;28;20184;-69
2022/05/23 03:11:02;;;;;;;3.72;2.88;;;16.00;99.90;;;;;;5071380;28;20212;-68
2022/05/23 03:13:28;;;;;;;3.22;2.17;;;16.00;99.90;;;;;;5055318;28;20186;-69
2022/05/23 03:15:54;;;;;;;3.55;2.83;;;16.00;99.90;;;;;;5061510;28;20182;-69
2022/05/23 03:18:21;;;;;;;3.40;2.40;;;16.00;99.90;;;;;;5061926;28;20627;-69
2022/05/23 03:20:46;;;;;;;2.83;2.38;;;16.10;99.90;;;;;;5058228;28;20219;-70
2022/05/23 03:28:43;;;;;;;3.50;2.20;;;16.10;99.90;;;;;;5063540;28;20314;-68
2022/05/23 03:31:08;;;;;;;4.40;2.40;;;16.10;99.90;;;;;;5068373;28;20634;-69
2022/05/23 03:33:34;;;;;;;3.30;2.30;;;16.10;99.90;;;;;;5060285;28;20696;-69
2022/05/23 03:36:00;;;;;;;3.20;2.20;;;16.00;99.90;;;;;;5069150;28;20683;-68
2022/05/23 03:38:27;;;;;;;3.65;2.28;;;16.10;99.90;;;;;;5065693;28;20186;-68
2022/05/23 03:40:52;;;;;;;3.88;2.40;;;16.00;99.90;;;;;;5054705;28;20205;-69
2022/05/23 03:43:18;;;;;;;3.47;2.47;;;16.00;99.90;;;;;;5058085;28;20192;-69
2022/05/23 03:45:44;;;;;;;3.08;2.20;;;16.10;99.90;;;;;;5073754;28;20181;-68
2022/05/23 03:48:09;;;;;;;3.72;2.58;;;16.10;99.90;;;;;;5061802;28;20196;-72
2022/05/23 03:50:36;;;;;;;2.50;2.30;;;16.10;99.90;;;;;;5064637;28;20177;-67
2022/05/23 03:53:03;;;;;;;2.83;2.47;;;16.20;99.90;;;;;;5073276;28;20173;-66
2022/05/23 03:55:29;;;;;;;2.90;2.35;;;16.10;99.90;;;;;;5064989;28;20590;-69
2022/05/23 03:57:55;;;;;;;2.70;2.40;;;16.10;99.90;;;;;;5057714;28;20302;-69
2022/05/23 04:00:21;;;;;;;6.07;2.65;;;16.00;99.90;;;;;;5052767;28;20202;-71
2022/05/23 04:02:46;;;;;;;5.50;2.70;;;16.00;99.90;;;;;;5054327;28;20231;-70
2022/05/23 04:05:14;;;;;;;3.53;2.63;;;16.00;99.90;;;;;;5054142;28;20554;-71
2022/05/23 04:07:40;;;;;;;4.05;2.72;;;16.10;99.90;;;;;;5054307;28;20194;-66
2022/05/23 04:10:09;;;;;;;4.45;3.08;;;16.00;99.90;;;;;;5053706;28;20256;-64
2022/05/23 04:12:36;;;;;;;4.82;2.92;;;15.90;99.90;;;;;;5060276;28;20668;-64
2022/05/23 04:15:03;;;;;;;6.20;3.00;;;15.90;99.90;;;;;;5062780;28;20264;-66
2022/05/23 04:17:29;;;;;;;5.13;2.67;;;16.00;99.90;;;;;;5053530;28;20335;-71
2022/05/23 04:19:54;;;;;;;2.88;2.63;;;16.00;99.90;;;;;;5054281;28;20272;-68
2022/05/23 04:22:20;;;;;;;4.50;2.78;;;15.90;99.90;;;;;;5050644;28;20239;-67
2022/05/23 04:24:46;;;;;;;7.25;3.00;;;15.90;99.90;;;;;;5054261;28;20337;-68
2022/05/23 04:27:11;;;;;;;3.97;3.00;;;15.90;99.90;;;;;;5053880;28;20224;-72
2022/05/23 04:29:37;;;;;;;3.80;3.28;;;15.90;99.90;;;;;;5053398;28;20681;-71
2022/05/23 04:35:12;;;;;;;4.88;3.10;;;15.80;99.90;;;;;;5059140;28;20292;-71
2022/05/23 04:37:32;;;;;;;7.88;3.28;;;15.80;99.90;;;;;;5066606;28;20317;-62
2022/05/23 04:39:58;;;;;;;5.13;3.10;;;15.80;99.90;;;;;;5072832;28;20176;-64
2022/05/23 04:42:23;;;;;;;4.95;3.50;;;15.80;99.90;;;;;;5073835;28;20220;-65
2022/05/23 04:44:51;;;;;;;4.20;3.08;;;15.80;99.90;;;;;;5073846;28;20310;-65
2022/05/23 04:50:03;;;;;;;7.25;3.55;;;15.80;99.90;;;;;;5073634;28;20204;-65
2022/05/23 04:52:29;;;;;;;4.50;3.17;;;15.80;99.90;;;;;;5073974;28;20181;-65
2022/05/23 04:54:55;;;;;;;4.70;3.20;;;15.80;99.90;;;;;;5073577;28;20195;-65
2022/05/23 04:57:20;;;;;;;7.50;3.28;;;15.80;99.90;;;;;;5073673;28;20635;-65
2022/05/23 04:59:46;;;;;;;9.20;3.25;;;15.90;99.90;;;;;;5073868;28;20184;-65
2022/05/23 05:02:12;;;;;;;3.35;3.00;;;15.90;99.90;;;;;;5073459;28;20208;-65
2022/05/23 05:04:38;;;;;;;6.55;2.92;;;15.90;99.90;;;;;;5072420;28;20259;-65
2022/05/23 05:07:04;;;;;;;6.28;2.90;;;15.90;99.90;;;;;;5073345;28;20288;-66
2022/05/23 05:09:30;;;;;;;7.45;3.13;;;15.80;99.90;;;;;;5073758;28;20190;-65
2022/05/23 05:11:56;;;;;;;3.90;3.00;;;15.80;99.90;;;;;;5073520;28;20181;-65
2022/05/23 05:14:21;;;;;;;4.40;2.95;;;15.80;99.90;;;;;;5073600;28;20530;-66
2022/05/23 05:16:47;;;;;;;2.63;2.42;;;15.70;99.90;;;;;;5073559;28;20706;-65
2022/05/23 05:19:13;;;;;;;3.30;2.75;;;15.80;99.90;;;;;;5073651;28;20260;-65
2022/05/23 05:21:38;;;;;;;3.40;2.90;;;15.70;99.90;;;;;;5055619;28;20206;-65
2022/05/23 05:24:04;;;;;;;3.70;3.08;;;15.70;99.90;;;;;;5033413;28;20224;-65
2022/05/23 05:26:30;;;;;;;3.35;2.70;;;15.70;99.90;;;;;;5036299;28;20203;-66
2022/05/23 05:28:56;;;;;;;6.18;2.90;;;15.60;99.90;;;;;;5052950;28;20257;-66
2022/05/23 05:31:44;;;;;;;4.75;2.83;;;15.50;99.90;;;;;;5052988;28;20272;-66
2022/05/23 05:34:21;;;;;;;2.75;2.55;;;15.40;99.90;;;;;;5053089;28;20205;-65
2022/05/23 05:36:50;;;;;;;5.85;3.10;;;15.40;99.90;;;;;;5053098;28;20518;-65
2022/05/23 05:39:19;;;;;;;5.07;2.97;;;15.30;99.90;;;;;;5052385;28;20169;-65
2022/05/23 05:42:03;;;;;;;2.97;2.70;;;15.30;99.90;;;;;;5052874;28;20664;-65
2022/05/23 05:44:33;;;;;;;4.18;2.78;;;15.30;99.90;;;;;;5052857;28;20169;-65
2022/05/23 05:47:04;;;;;;;4.88;2.92;;;15.30;99.90;;;;;;5053004;28;20178;-65
2022/05/23 05:49:35;;;;;;;3.55;2.97;;;15.30;99.90;;;;;;5053089;28;20169;-65
2022/05/23 05:52:03;;;;;;;5.95;3.58;;;15.30;99.90;;;;;;5052714;28;20177;-65
2022/05/23 05:54:30;;;;;;;5.53;3.30;;;15.30;99.90;;;;;;5052724;28;20524;-66
2022/05/23 05:56:58;;;;;;;3.38;3.08;;;15.30;99.90;;;;;;5052710;28;20239;-65
2022/05/23 05:59:25;;;;;;;4.05;3.40;;;15.30;99.90;;;;;;5052522;28;20258;-66
2022/05/23 06:01:50;;;;;;;4.25;3.15;;;15.40;99.90;;;;;;5052520;28;20213;-66
2022/05/23 06:04:16;;;;;;;4.63;2.80;;;15.40;99.90;;;;;;5052518;28;20733;-66
2022/05/23 06:12:11;;;;;;;6.38;2.85;;;15.60;99.90;;;;;;5052692;28;20567;-66
2022/05/23 06:14:36;;;;;;;4.68;2.78;;;15.80;99.90;;;;;;5052417;28;20185;-66
2022/05/23 06:17:05;;;;;;;3.85;2.97;;;15.80;99.90;;;;;;5051955;28;20221;-66
2022/05/23 06:19:41;;;;;;;3.53;2.95;;;15.90;99.90;;;;;;5052458;28;20182;-66
2022/05/23 06:22:07;;;;;;;4.80;3.63;;;15.90;99.90;;;;;;5042303;28;20662;-66
2022/05/23 06:24:33;;;;;;;5.45;3.25;;;15.90;99.90;;;;;;5032359;28;20178;-66
2022/05/23 06:26:59;;;;;;;4.10;2.90;;;15.90;99.90;;;;;;5038982;28;20207;-65
2022/05/23 06:29:25;;;;;;;4.35;3.35;;;15.90;99.90;;;;;;5052257;28;20182;-66
2022/05/23 06:31:50;;;;;;;5.80;3.47;;;16.00;99.90;;;;;;5052184;28;20228;-66
2022/05/23 06:34:16;;;;;;;3.22;2.92;;;16.10;99.90;;;;;;5051958;28;20547;-66
2022/05/23 06:36:41;;;;;;;4.90;3.20;;;16.30;99.90;;;;;;5051917;28;20178;-66
2022/05/23 06:39:07;;;;;;;4.47;2.67;;;16.40;99.90;;;;;;5052000;28;20181;-66
2022/05/23 06:41:32;;;;;;;4.25;2.70;;;16.50;99.90;;;;;;5052011;28;20209;-66
2022/05/23 06:43:58;;;;;;;3.90;3.03;;;16.70;99.90;;;;;;5051895;28;20630;-66
2022/05/23 06:46:24;;;;;;;2.85;2.65;;;16.90;99.90;;;;;;5051720;28;20655;-66
2022/05/23 06:48:50;;;;;;;2.60;2.40;;;17.10;99.90;;;;;;5051878;28;20536;-66
2022/05/23 06:51:15;;;;;;;2.88;2.40;;;17.40;99.90;;;;;;5050868;28;20255;-66
2022/05/23 06:53:41;;;;;;;3.33;2.53;;;17.60;99.90;;;;;;5051958;28;20173;-67
2022/05/23 06:56:06;;;;;;;2.65;2.30;;;17.90;99.90;;;;;;5051825;28;20189;-66
2022/05/23 06:58:32;;;;;;;2.00;1.90;;;18.40;99.90;;;;;;5051912;28;20184;-67
2022/05/23 07:00:57;;;;;;;3.47;2.33;;;19.20;99.90;;;;;;5051793;28;20216;-66
2022/05/23 07:03:23;;;;;;;3.13;1.92;;;20.40;99.90;;;;;;5051579;28;20191;-67
2022/05/23 07:14:02;;;;;;;4.05;1.70;;;24.50;99.40;;;;;;5051884;28;20180;-68
2022/05/23 07:16:31;;;;;;;3.08;2.00;;;24.40;98.80;;;;;;5051446;28;20169;-66
2022/05/23 07:18:56;;;;;;;2.17;1.88;;;24.10;97.70;;;;;;5051659;28;20274;-65
2022/05/23 07:21:24;;;;;;;3.42;1.70;;;24.00;98.40;;;;;;5047456;28;20657;-67
2022/05/23 07:23:50;;;;;;;2.30;1.85;;;23.90;98.40;;;;;;5031807;28;20214;-67
2022/05/23 07:26:16;;;;;;;4.25;1.42;;;23.90;97.60;;;;;;5032398;28;20185;-66
2022/05/23 07:28:49;;;;;;;2.08;1.80;;;23.80;98.00;;;;;;5051540;28;20256;-66
2022/05/23 07:31:16;;;;;;;2.10;1.77;;;23.70;97.60;;;;;;5051489;28;20231;-67
2022/05/23 07:33:43;;;;;;;3.25;1.55;;;23.90;98.40;;;;;;5051509;28;20224;-66
2022/05/23 07:36:09;;;;;;;5.63;1.73;;;24.30;97.90;;;;;;5051425;28;20223;-66
2022/05/23 07:38:38;;;;;;;2.65;1.60;;;24.50;96.70;;;;;;5051486;28;20570;-66
2022/05/23 07:41:07;;;;;;;2.22;1.85;;;24.50;95.60;;;;;;5051223;28;20213;-66
2022/05/23 07:43:35;;;;;;;2.00;1.80;;;24.20;96.00;;;;;;5051513;28;20180;-66
2022/05/23 07:46:08;;;;;;;3.63;1.77;;;23.90;96.00;;;;;;5051408;28;20182;-66
2022/05/23 07:48:34;;;;;;;2.45;1.80;;;23.50;96.50;;;;;;5051602;28;20178;-66
2022/05/23 07:51:00;;;;;;;4.53;2.17;;;23.10;96.80;;;;;;5051279;28;20188;-66
2022/05/23 08:01:38;;;;;;;2.78;1.90;;;22.30;99.60;;;;;;5051306;28;20259;-66
2022/05/23 08:04:03;;;;;;;2.38;2.03;;;22.40;99.50;;;;;;5054387;28;20178;-66
2022/05/23 08:06:29;;;;;;;1.98;1.88;;;22.30;99.40;;;;;;5054866;28;20181;-66
2022/05/23 08:08:55;;;;;;;3.60;2.33;;;22.10;99.80;;;;;;5054883;28;20178;-66
2022/05/23 08:11:21;;;;;;;3.35;2.40;;;21.80;99.80;;;;;;5054611;28;20269;-66
2022/05/23 08:13:48;;;;;;;3.38;2.00;;;21.70;99.90;;;;;;5054908;28;20272;-67
2022/05/23 08:16:14;;;;;;;4.90;2.15;;;21.60;99.90;;;;;;5054551;28;20603;-66
2022/05/23 08:18:40;;;;;;;4.43;2.55;;;21.50;99.90;;;;;;5054908;28;20192;-66
2022/05/23 08:21:06;;;;;;;4.05;2.35;;;21.50;99.90;;;;;;5052937;28;20209;-66
2022/05/23 08:23:31;;;;;;;3.10;2.67;;;21.90;99.90;;;;;;5034677;28;20637;-66
2022/05/23 08:25:57;;;;;;;4.30;2.35;;;22.50;99.90;;;;;;5034638;28;20189;-65
2022/05/23 08:28:22;;;;;;;4.30;2.38;;;23.20;99.90;;;;;;5053022;28;20915;-67
2022/05/23 08:30:48;;;;;;;4.05;2.53;;;23.80;99.90;;;;;;5054595;28;20201;-67
2022/05/23 08:33:13;;;;;;;3.67;2.15;;;24.40;99.60;;;;;;5054303;28;20188;-67
2022/05/23 08:35:39;;;;;;;3.72;2.20;;;25.20;99.10;;;;;;5054304;28;20188;-67
2022/05/23 08:38:05;;;;;;;2.25;2.00;;;25.90;96.70;;;;;;5054208;28;20177;-67
2022/05/23 08:40:48;;;;;;;2.42;1.98;;;26.70;95.70;;;;;;5053539;28;20261;-67
2022/05/23 08:43:39;;;;;;;2.17;1.60;;;27.40;94.10;;;;;;5054162;28;20177;-66
2022/05/23 08:46:06;;;;;;;3.45;2.00;;;27.80;92.70;;;;;;5053310;28;20192;-66
2022/05/23 08:48:43;;;;;;;2.58;1.90;;;28.20;91.10;;;;;;5054226;28;20320;-66
2022/05/23 08:51:30;;;;;;;3.00;1.75;;;27.90;87.10;;;;;;5054093;28;20651;-66
2022/05/23 08:54:07;;;;;;;2.53;1.60;;;27.90;90.40;;;;;;5054007;28;20621;-66
2022/05/23 08:56:40;;;;;;;2.65;1.80;;;27.90;88.30;;;;;;5054051;28;20283;-66
2022/05/23 08:59:37;;;;;;;3.35;1.88;;;28.00;90.10;;;;;;5053891;28;20193;-66
2022/05/23 09:02:12;;;;;;;3.10;2.03;;;28.30;88.80;;;;;;5047833;28;20260;-66
2022/05/23 09:04:45;;;;;;;1.95;1.58;;;28.50;85.50;;;;;;5053949;28;20264;-66
2022/05/23 09:07:21;;;;;;;2.00;1.70;;;28.60;84.90;;;;;;5053774;28;20311;-66
2022/05/23 09:09:46;;;;;;;2.20;1.73;;;28.50;83.20;;;;;;5053770;28;20631;-66
2022/05/23 09:12:15;;;;;;;5.97;2.00;;;28.30;83.00;;;;;;5053589;28;20202;-66
2022/05/23 09:14:40;;;;;;;2.47;1.60;;;27.80;83.70;;;;;;5052705;28;20181;-66
2022/05/23 09:17:12;;;;;;;2.00;1.70;;;27.40;83.30;;;;;;5053324;28;20229;-66
2022/05/23 09:19:51;;;;;;;4.85;2.20;;;27.50;84.70;;;;;;5053750;28;20181;-66
2022/05/23 09:22:23;;;;;;;3.83;1.90;;;27.20;81.80;;;;;;5047892;28;20225;-66
2022/05/23 09:24:57;;;;;;;2.75;1.80;;;27.20;82.50;;;;;;5053474;28;20192;-67
2022/05/23 09:27:43;;;;;;;6.82;2.13;;;27.40;84.40;;;;;;5053164;28;20268;-67
2022/05/23 09:30:21;;;;;;;2.50;1.90;;;27.80;81.40;;;;;;5053322;28;20169;-67
2022/05/23 09:32:50;;;;;;;3.15;1.95;;;28.20;83.00;;;;;;5053326;28;20189;-67
2022/05/23 09:35:28;;;;;;;3.67;1.98;;;28.50;78.70;;;;;;5053137;28;20310;-67
2022/05/23 09:38:17;;;;;;;3.28;1.65;;;28.60;80.40;;;;;;5053291;28;20173;-67
2022/05/23 09:40:44;;;;;;;2.35;1.80;;;29.20;80.70;;;;;;5052987;28;20539;-66
2022/05/23 09:49:14;;;;;;;2.60;1.92;;;30.00;75.60;;;;;;5052897;28;20177;-67
2022/05/23 09:51:49;;;;;;;6.60;1.75;;;29.80;77.00;;;;;;5053011;28;20223;-67
2022/05/23 09:54:26;;;;;;;3.00;2.00;;;29.90;77.70;;;;;;5052816;28;20177;-66
2022/05/23 09:56:52;;;;;;;2.38;1.80;;;29.80;75.30;;;;;;5052828;28;20185;-66
2022/05/23 09:59:29;;;;;;;3.45;2.17;;;29.40;75.90;;;;;;5052733;28;20644;-67
2022/05/23 10:01:55;;;;;;;2.25;1.75;;;28.80;77.30;;;;;;5052707;28;20251;-67
2022/05/23 10:04:29;;;;;;;2.63;1.58;;;28.60;78.70;;;;;;5052529;28;20182;-67
2022/05/23 10:06:56;;;;;;;3.97;2.20;;;28.50;79.60;;;;;;5052656;28;20267;-67
2022/05/23 10:09:29;;;;;;;4.43;2.00;;;28.40;81.10;;;;;;5052374;28;20181;-66
2022/05/23 10:12:08;;;;;;;2.92;1.95;;;28.20;79.40;;;;;;5052694;28;20181;-67
2022/05/23 10:14:46;;;;;;;3.00;1.70;;;28.10;78.90;;;;;;5052632;28;20236;-67
2022/05/23 10:17:28;;;;;;;3.95;1.90;;;28.20;80.00;;;;;;5052221;28;20228;-67
2022/05/23 10:20:14;;;;;;;7.07;2.35;;;27.90;80.20;;;;;;5052449;28;20177;-67
2022/05/23 10:23:00;;;;;;;3.55;2.55;;;27.60;80.70;;;;;;5037730;28;20225;-67
2022/05/23 10:25:32;;;;;;;1.92;1.70;;;27.30;82.20;;;;;;5032181;28;20181;-66
2022/05/23 10:28:01;;;;;;;2.22;1.83;;;26.80;83.50;;;;;;5047158;28;20189;-65
2022/05/23 10:30:32;;;;;;;4.50;1.90;;;26.70;85.00;;;;;;5052175;28;20264;-66
2022/05/23 10:33:08;;;;;;;5.47;2.10;;;26.60;85.40;;;;;;5052241;28;20193;-66
2022/05/23 10:35:50;;;;;;;2.75;1.83;;;26.60;86.60;;;;;;5052360;28;20269;-66
2022/05/23 10:44:28;;;;;;;3.15;1.80;;;26.50;84.80;;;;;;5052030;28;20322;-66
2022/05/23 10:47:10;;;;;;;3.45;1.80;;;26.30;85.70;;;;;;5052045;28;20177;-65
2022/05/23 10:50:01;;;;;;;3.08;2.08;;;26.10;86.10;;;;;;5052140;28;20530;-66
2022/05/23 10:52:53;;;;;;;3.55;1.85;;;25.80;87.00;;;;;;5052010;28;20177;-66
2022/05/23 10:55:27;;;;;;;7.38;2.10;;;25.40;89.10;;;;;;5051885;28;20246;-66
2022/05/23 10:58:14;;;;;;;4.25;2.25;;;25.00;90.40;;;;;;5052040;28;20235;-66
2022/05/23 11:00:44;;;;;;;6.63;2.00;;;24.70;91.40;;;;;;5051882;28;20184;-66
2022/05/23 11:03:21;;;;;;;6.88;2.50;;;24.50;91.70;;;;;;5051785;28;20184;-66
2022/05/23 11:06:02;;;;;;;4.75;2.10;;;24.40;92.60;;;;;;5051872;28;20169;-66
2022/05/23 11:08:42;;;;;;;2.28;2.00;;;24.20;93.00;;;;;;5050363;28;20169;-66
2022/05/23 11:11:44;;;;;;;2.70;2.00;;;24.00;93.90;;;;;;5051509;28;20177;-66
2022/05/23 11:14:24;;;;;;;5.47;2.00;;;23.70;95.50;;;;;;5031856;28;20276;-65
2022/05/23 11:16:54;;;;;;;2.50;2.22;;;23.40;97.10;;;;;;5051517;28;20239;-66
2022/05/23 11:19:20;;;;;;;5.03;2.42;;;23.20;99.10;;;;;;5051602;28;20252;-65
2022/05/23 11:22:08;;;;;;;4.03;2.45;;;23.00;99.90;;;;;;5044528;28;20224;-64
2022/05/23 11:24:42;;;;;;;4.38;3.17;;;22.70;99.90;;;;;;5031720;28;20224;-64
2022/05/23 11:35:58;;;;;;;10.38;4.05;;;21.20;99.90;;;;;;5051923;28;20181;-65
2022/05/23 11:38:24;;;;;;;4.45;3.67;;;21.20;99.90;;;;;;5053887;28;20173;-65
2022/05/23 11:41:29;;;;;;;5.43;3.08;;;21.10;99.90;;;;;;5055493;28;20224;-65
2022/05/23 11:43:54;;;;;;;5.35;3.25;;;21.00;99.90;;;;;;5013371;28;20206;-65
2022/05/23 11:46:26;;;;;;;4.88;2.65;;;20.90;99.90;;;;;;5013609;28;20225;-64
2022/05/23 11:48:58;;;;;;;4.70;2.80;;;20.80;99.90;;;;;;5034644;28;20186;-65
2022/05/23 11:51:23;;;;;;;5.85;2.78;;;20.60;99.90;;;;;;5055170;28;20177;-65
2022/05/23 11:54:08;;;;;;;3.25;2.30;;;20.50;99.90;;;;;;5055286;28;20173;-66
2022/05/23 11:56:36;;;;;;;7.47;3.15;;;20.40;99.90;;;;;;5055224;28;20663;-66
2022/05/23 11:59:03;;;;;;;8.32;3.00;;;20.30;99.90;;;;;;5054921;28;20181;-66
2022/05/23 12:01:30;;;;;;;5.50;2.72;;;20.30;99.90;;;;;;5055145;28;20227;-66
2022/05/23 12:03:56;;;;;;;5.13;2.65;;;20.30;99.90;;;;;;5054964;28;20823;-66
2022/05/23 12:06:24;;;;;;;6.50;2.65;;;20.40;99.90;;;;;;5054853;28;20283;-66
2022/05/23 12:08:59;;;;;;;5.25;3.03;;;20.50;99.90;;;;;;5054946;28;20698;-66
2022/05/23 12:11:28;;;;;;;5.50;3.28;;;20.40;99.90;;;;;;5054697;28;20660;-66
2022/05/23 12:13:58;;;;;;;5.30;3.38;;;20.40;99.90;;;;;;5054954;28;20502;-66
2022/05/23 12:16:30;;;;;;;5.30;2.88;;;20.30;99.90;;;;;;5054548;28;20656;-66
2022/05/23 12:19:28;;;;;;;4.68;2.53;;;20.30;99.90;;;;;;5054761;28;20686;-66
2022/05/23 12:22:13;;;;;;;6.03;2.95;;;20.30;99.90;;;;;;5046585;28;20304;-66
2022/05/23 12:25:00;;;;;;;4.88;2.70;;;20.30;99.90;;;;;;5034890;28;20182;-66
2022/05/23 12:28:00;;;;;;;3.78;2.58;;;20.30;99.90;;;;;;5045080;28;20177;-66
2022/05/23 12:30:26;;;;;;;3.28;2.38;;;20.30;99.90;;;;;;5054492;28;20178;-66
2022/05/23 12:33:00;;;;;;;3.15;2.40;;;20.40;99.90;;;;;;5054604;28;20177;-66
2022/05/23 12:35:48;;;;;;;2.67;2.40;;;20.50;99.90;;;;;;5054406;28;20188;-66
2022/05/23 12:38:41;;;;;;;3.15;2.30;;;20.70;99.90;;;;;;5054445;28;20162;-66
2022/05/23 12:41:31;;;;;;;3.70;2.70;;;20.80;99.90;;;;;;5054222;28;20201;-66
2022/05/23 12:44:32;;;;;;;4.90;2.38;;;20.90;99.90;;;;;;5054393;28;20359;-64
2022/05/23 12:47:25;;;;;;;4.93;2.47;;;21.10;99.90;;;;;;5054283;28;20181;-66
2022/05/23 12:50:37;;;;;;;5.50;3.58;;;21.20;99.90;;;;;;5054320;28;20181;-66
2022/05/23 12:53:20;;;;;;;9.13;3.33;;;21.30;99.90;;;;;;5048270;28;20664;-66
2022/05/23 12:56:16;;;;;;;4.10;3.00;;;21.30;99.90;;;;;;5054043;28;20629;-67
2022/05/23 12:59:05;;;;;;;8.15;2.92;;;21.40;99.90;;;;;;5053902;28;20185;-67
2022/05/23 13:01:34;;;;;;;4.05;2.63;;;21.50;99.90;;;;;;5053913;28;20676;-67
2022/05/23 13:04:05;;;;;;;5.45;2.50;;;21.70;99.90;;;;;;5053970;28;20260;-66
2022/05/23 13:06:37;;;;;;;3.42;2.40;;;21.90;99.90;;;;;;5054005;28;20287;-66
2022/05/23 13:09:07;;;;;;;4.72;2.50;;;22.10;99.90;;;;;;5053722;28;20170;-67
2022/05/23 13:11:44;;;;;;;3.92;2.33;;;22.40;99.90;;;;;;5053756;28;20191;-67
2022/05/23 13:14:10;;;;;;;4.95;2.70;;;22.70;99.90;;;;;;5053833;28;20520;-67
2022/05/23 13:16:49;;;;;;;4.97;2.90;;;23.00;99.90;;;;;;5053597;28;20213;-67
2022/05/23 13:22:12;;;;;;;3.67;2.70;;;23.50;99.90;;;;;;5044412;28;20228;-66
2022/05/23 13:24:54;;;;;;;3.45;2.50;;;23.70;99.90;;;;;;5033683;28;20181;-67
2022/05/23 13:27:27;;;;;;;6.47;2.50;;;24.00;99.90;;;;;;5043083;28;20268;-66
2022/05/23 13:30:03;;;;;;;4.50;2.38;;;24.30;99.90;;;;;;5053511;28;20181;-66
2022/05/23 13:32:28;;;;;;;3.10;2.47;;;24.60;99.90;;;;;;5053496;28;20669;-66
2022/05/23 13:34:56;;;;;;;4.20;2.15;;;24.70;99.90;;;;;;5053344;28;20240;-66
2022/05/23 13:37:31;;;;;;;5.40;2.47;;;24.70;99.90;;;;;;5053189;28;20181;-66
2022/05/23 13:40:26;;;;;;;3.80;2.20;;;24.70;99.90;;;;;;5053228;28;20603;-65
2022/05/23 13:43:09;;;;;;;3.95;2.17;;;24.90;99.90;;;;;;5052534;28;20228;-66
2022/05/23 13:45:35;;;;;;;3.10;2.33;;;25.20;99.90;;;;;;5042911;28;20268;-66
2022/05/23 13:48:07;;;;;;;6.07;2.80;;;25.40;99.90;;;;;;5052774;28;20223;-66
2022/05/23 13:50:39;;;;;;;3.75;2.70;;;25.70;99.90;;;;;;5053077;28;20188;-66
2022/05/23 13:53:16;;;;;;;4.60;2.80;;;25.90;99.90;;;;;;5052573;28;20359;-65
2022/05/23 13:55:47;;;;;;;5.68;2.42;;;25.80;99.90;;;;;;5053068;28;20251;-66
2022/05/23 13:58:14;;;;;;;5.32;2.65;;;25.90;99.90;;;;;;5052446;28;20178;-65
2022/05/23 14:00:43;;;;;;;4.50;2.25;;;26.00;99.90;;;;;;5052193;28;20667;-65
2022/05/23 14:03:21;;;;;;;4.57;2.65;;;26.10;99.90;;;;;;5052214;28;20576;-65
2022/05/23 14:05:50;;;;;;;5.40;2.47;;;25.90;99.90;;;;;;5052779;28;20181;-66
2022/05/23 14:08:20;;;;;;;3.55;2.83;;;25.80;99.90;;;;;;5052149;28;20181;-65